EST,Max TemperatureF,Mean TemperatureF,Min TemperatureF,Max Dew PointF,MeanDew PointF,Min DewpointF,Max Humidity, Mean Humidity, Min Humidity, Max Sea Level PressureIn, Mean Sea Level PressureIn, Min Sea Level PressureIn, Max VisibilityMiles, Mean VisibilityMiles, Min VisibilityMiles, Max Wind SpeedMPH, Mean Wind SpeedMPH, Max Gust SpeedMPH,PrecipitationIn, CloudCover, Events, WindDirDegrees
2011-11-1,51,40,28,41,32,28,100,87,47,30.40,30.36,30.31,10,6,0,6,0,,0.00,4,Fog,88
2011-11-2,55,40,26,41,32,25,100,83,44,30.40,30.33,30.24,10,7,0,5,0,,0.00,2,Fog,92
2011-11-3,55,42,30,46,35,30,100,88,47,30.21,30.01,29.86,10,5,0,7,0,,0.00,4,Fog,296
2011-11-4,48,40,33,39,28,23,81,63,46,30.26,30.05,29.90,10,10,10,20,9,28,0.00,4,Rain,303
2011-11-5,46,37,28,28,25,19,87,64,34,30.42,30.37,30.27,10,10,10,10,5,16,0.00,0,,281
2011-11-6,55,37,19,28,21,10,100,71,17,30.47,30.41,30.28,10,10,7,8,1,,0.00,0,,271
2011-11-7,64,42,21,43,32,19,100,79,27,30.30,30.20,30.12,10,9,2,10,1,17,0.00,0,,279
2011-11-8,64,48,33,45,40,34,100,78,37,30.24,30.20,30.17,10,8,0,12,3,,0.00,1,Fog,274
2011-11-9,68,50,33,52,42,34,100,88,49,30.22,30.14,30.04,10,5,0,6,0,,0.00,3,Fog,109
2011-11-10,60,50,41,54,48,41,100,94,72,30.03,29.89,29.63,10,6,1,6,0,,0.40,8,Rain,114
2011-11-11,44,40,35,39,32,23,87,73,49,29.77,29.54,29.41,10,10,7,21,12,31,0.00,6,Rain-Snow,287
2011-11-12,48,39,30,34,28,23,100,68,43,30.03,29.92,29.78,10,10,7,8,4,,0.00,4,,254
2011-11-13,51,40,28,39,33,27,100,85,50,30.14,30.02,29.88,10,8,0,7,0,,0.00,2,Fog,95
2011-11-14,55,45,35,45,41,36,100,87,58,29.87,29.78,29.71,10,8,0,4,0,,0.01,3,Fog-Rain,40
2011-11-15,59,48,37,54,44,36,100,84,47,29.93,29.74,29.59,10,6,0,10,3,17,0.01,3,Fog,288
2011-11-16,50,41,32,46,39,32,100,96,76,29.96,29.86,29.72,10,4,0,0,0,,0.26,7,Fog-Rain,-1
2011-11-17,46,42,35,46,32,23,100,70,53,29.83,29.77,29.69,10,10,1,13,5,24,0.00,4,,293
2011-11-18,41,36,32,28,22,18,81,58,39,30.29,30.11,29.84,10,10,10,15,7,22,0.00,4,,272
2011-11-19,50,36,23,32,26,19,100,80,34,30.32,30.24,30.16,10,10,5,0,0,,0.00,2,,-1
2011-11-20,60,45,30,43,35,28,100,77,52,30.14,29.99,29.89,10,10,7,10,1,23,0.00,5,Rain,288
2011-11-21,42,34,24,34,23,14,86,62,41,30.35,30.28,30.10,10,10,10,13,7,22,0.00,2,,288
2011-11-22,41,29,17,27,21,16,100,77,36,30.42,30.35,30.28,10,10,10,7,1,,0.00,0,,285
2011-11-23,35,34,32,34,32,27,100,95,80,30.23,29.90,29.72,10,6,0,8,3,,0.64,8,Rain-Snow,326
2011-11-24,35,32,30,32,29,27,100,87,80,30.13,30.07,29.96,10,10,10,15,6,22,0.00,4,,281
2011-11-25,46,36,26,43,32,27,100,96,66,30.07,30.01,29.94,10,4,0,7,0,,0.00,4,Fog,255
2011-11-26,50,38,26,43,32,27,100,94,62,30.21,30.11,30.00,10,7,0,4,0,,0.00,0,Fog,112
2011-11-27,41,34,28,41,33,28,100,100,100,30.24,30.19,30.09,7,3,0,4,0,,0.00,8,Fog,92
2011-11-28,41,37,33,41,36,34,100,100,100,30.11,30.05,30.03,7,3,0,0,0,,0.00,8,Fog,-1
2011-11-29,48,40,33,46,41,34,100,99,93,30.11,30.06,29.94,10,6,2,5,0,,0.00,8,,151
2011-11-30,55,48,42,54,42,32,100,74,54,29.72,29.58,29.53,10,8,1,14,3,22,0.79,6,Rain,217